createdAt,value
2019-05-16T00:01:23.221Z,8.1
2019-05-16T00:06:30.312Z,8.1
2019-05-16T00:11:35.292Z,8.1
2019-05-16T00:16:42.607Z,8
2019-05-16T00:21:50.460Z,8
2019-05-16T00:31:59.960Z,7.8
2019-05-16T00:37:05.643Z,7.9
2019-05-16T00:42:13.207Z,7.9
2019-05-16T00:47:19.632Z,8.1
2019-05-16T00:52:25.210Z,8.2
2019-05-16T00:57:33.126Z,8.2
2019-05-16T01:02:39.991Z,8.4
2019-05-16T01:07:45.176Z,8.3
2019-05-16T01:12:52.475Z,8.4
2019-05-16T01:17:59.864Z,8.5
2019-05-16T01:23:05.103Z,8.5
2019-05-16T01:28:10.800Z,8.6
2019-05-16T01:33:15.929Z,8.5
2019-05-16T01:38:23.627Z,8.6
2019-05-16T01:43:30.272Z,8.6
2019-05-16T01:48:35.268Z,8.6
2019-05-16T01:53:42.810Z,8.6
2019-05-16T01:58:50.774Z,8.7
2019-05-16T02:03:58.553Z,8.7
2019-05-16T02:09:02.486Z,8.7
2019-05-16T02:14:10.483Z,8.7
2019-05-16T02:19:15.679Z,8.7
2019-05-16T02:24:23.590Z,8.8
2019-05-16T02:29:31.840Z,8.8
2019-05-16T02:34:37.180Z,8.8
2019-05-16T02:39:45.897Z,8.8
2019-05-16T02:44:53.069Z,8.9
2019-05-16T02:50:00.780Z,8.9
2019-05-16T02:55:06.404Z,8.9
2019-05-16T03:00:13.868Z,8.9
2019-05-16T03:05:20.580Z,8.9
2019-05-16T03:10:24.507Z,8.9
2019-05-16T03:15:32.795Z,8.8
2019-05-16T03:20:40.536Z,8.8
2019-05-16T03:25:45.954Z,8.9
2019-05-16T03:30:56.724Z,9
2019-05-16T03:35:57.275Z,9
2019-05-16T03:41:01.962Z,9
2019-05-16T03:46:07.020Z,9
2019-05-16T03:51:15.987Z,9
2019-05-16T03:56:23.894Z,9
2019-05-16T04:01:32.214Z,9
2019-05-16T04:06:37.577Z,9.1
2019-05-16T04:11:45.809Z,9.1
2019-05-16T04:16:52.932Z,9.3
2019-05-16T04:22:01.036Z,9.2
2019-05-16T04:27:06.603Z,9.3
2019-05-16T04:32:12.816Z,9.4
2019-05-16T04:37:17.956Z,9.4
2019-05-16T04:42:27.018Z,9.4
2019-05-16T04:47:35.396Z,9.4
2019-05-16T04:52:43.817Z,9.5
2019-05-16T04:57:52.771Z,9.7
2019-05-16T05:03:01.101Z,9.7
2019-05-16T05:08:06.883Z,9.9
2019-05-16T05:13:15.203Z,9.9
2019-05-16T05:18:23.239Z,10.2
2019-05-16T05:23:31.128Z,10.2
2019-05-16T05:28:40.161Z,10.2
2019-05-16T05:33:46.882Z,10.6
2019-05-16T05:39:15.536Z,10.8
2019-05-16T05:44:01.748Z,11.1
2019-05-16T05:49:06.788Z,11.1
2019-05-16T05:54:12.898Z,11.3
2019-05-16T05:59:21.071Z,11.4
2019-05-16T06:04:26.419Z,11.4
2019-05-16T06:09:34.893Z,11.5
2019-05-16T06:14:43.530Z,11.7
2019-05-16T06:19:50.908Z,12
2019-05-16T06:24:55.912Z,12
2019-05-16T06:30:02.487Z,12.6
2019-05-16T06:35:11.447Z,12.8
2019-05-16T06:40:16.858Z,12.8
2019-05-16T06:45:22.298Z,12.9
2019-05-16T06:50:26.008Z,13
2019-05-16T06:55:31.440Z,13.4
2019-05-16T07:00:35.240Z,13.4
2019-05-16T07:05:42.402Z,13.6
2019-05-16T07:10:47.352Z,13.7
2019-05-16T07:15:55.024Z,13.8
2019-05-16T07:21:02.364Z,14.2
2019-05-16T07:26:09.686Z,14.2
2019-05-16T07:31:23.506Z,13.9
2019-05-16T07:36:20.281Z,14.1
2019-05-16T07:41:25.805Z,14
2019-05-16T07:46:33.391Z,13.8
2019-05-16T07:51:41.257Z,13.8
2019-05-16T07:56:46.497Z,13.8
2019-05-16T08:01:55.600Z,13.7
2019-05-16T08:07:05.543Z,13.7
2019-05-16T08:12:10.078Z,13.6
2019-05-16T08:17:05.444Z,13.6
2019-05-16T08:22:12.631Z,13.6
2019-05-16T08:27:20.742Z,13.5
2019-05-16T08:32:26.205Z,13.5
2019-05-16T08:37:51.015Z,13.6
2019-05-16T08:42:36.786Z,13.6
2019-05-16T08:47:45.788Z,13.9
2019-05-16T08:52:45.792Z,14.1
2019-05-16T08:57:54.459Z,14
2019-05-16T09:03:01.435Z,14
2019-05-16T09:08:06.694Z,14.1
2019-05-16T09:13:11.690Z,14.2
2019-05-16T09:18:19.742Z,14.1
2019-05-16T09:23:26.760Z,14.1
2019-05-16T09:28:31.944Z,14
2019-05-16T09:33:39.384Z,14.1
2019-05-16T09:38:42.914Z,14.1
2019-05-16T09:43:50.710Z,14.7
2019-05-16T09:49:26.066Z,15.2
2019-05-16T09:54:01.278Z,15.2
2019-05-16T09:59:08.671Z,15.6
2019-05-16T10:04:13.753Z,15.6
2019-05-16T10:09:21.631Z,15.9
2019-05-16T10:14:28.741Z,15.9
2019-05-16T10:19:37.804Z,15.7
2019-05-16T10:24:42.900Z,15.8
2019-05-16T10:29:50.355Z,15.8
2019-05-16T10:34:57.208Z,15.8
2019-05-16T10:40:02.332Z,15.9
2019-05-16T10:45:10.642Z,15.9
2019-05-16T10:50:18.328Z,16
2019-05-16T10:55:23.811Z,16.2
2019-05-16T11:01:27.282Z,16.5
2019-05-16T11:05:41.117Z,16.6
2019-05-16T11:10:39.098Z,16.7
2019-05-16T11:15:44.265Z,16.7
2019-05-16T11:20:51.213Z,16.2
2019-05-16T11:25:59.501Z,15.9
2019-05-16T11:31:08.668Z,16.1
2019-05-16T11:36:17.741Z,16.3
2019-05-16T11:41:22.852Z,16.3
2019-05-16T11:46:30.032Z,17
2019-05-16T11:51:38.191Z,16.9
2019-05-16T11:56:43.318Z,17.2
2019-05-16T12:01:51.146Z,17.3
2019-05-16T12:06:58.401Z,17.3
2019-05-16T12:12:08.448Z,17.3
2019-05-16T12:17:03.889Z,17.3
2019-05-16T12:22:11.543Z,17.4
2019-05-16T12:27:19.140Z,17.2
2019-05-16T12:32:24.404Z,17.2
2019-05-16T12:37:31.886Z,17.3
2019-05-16T12:42:38.356Z,17.4
2019-05-16T12:47:43.332Z,17.4
2019-05-16T12:52:51.407Z,17.5
2019-05-16T12:58:19.511Z,17.1
2019-05-16T13:03:01.744Z,17.1
2019-05-16T13:08:06.497Z,16.9
2019-05-16T13:13:12.850Z,16.9
2019-05-16T13:18:18.746Z,16.4
2019-05-16T13:23:26.388Z,16.4
2019-05-16T13:28:31.858Z,16.5
2019-05-16T13:33:38.812Z,16.5
2019-05-16T13:38:43.977Z,16.4
2019-05-16T13:43:52.476Z,16.2
2019-05-16T13:48:57.468Z,16.1
2019-05-16T13:54:02.622Z,16
2019-05-16T13:59:09.700Z,15.8
2019-05-16T14:04:13.247Z,15.8
2019-05-16T14:09:18.312Z,16
2019-05-16T14:14:43.316Z,15.9
2019-05-16T14:19:29.308Z,15.9
2019-05-16T14:24:36.649Z,15.9
2019-05-16T14:29:42.293Z,15.9
2019-05-16T14:34:53.039Z,16.2
2019-05-16T14:39:50.669Z,16.5
2019-05-16T14:45:13.718Z,16.8
2019-05-16T14:50:01.297Z,16.8
2019-05-16T14:55:09.172Z,17.4
2019-05-16T15:00:14.409Z,17.4
2019-05-16T15:05:22.845Z,17.5
2019-05-16T15:10:28.743Z,17.2
2019-05-16T15:15:37.365Z,16.7
2019-05-16T15:20:46.646Z,16.5
2019-05-16T15:25:42.130Z,16.5
2019-05-16T15:30:51.391Z,16.2
2019-05-16T15:35:59.475Z,16.4
2019-05-16T15:41:04.596Z,16.4
2019-05-16T15:46:12.634Z,16.6
2019-05-16T15:51:12.684Z,16.7
2019-05-16T15:56:19.720Z,16.6
2019-05-16T16:01:28.047Z,16.6
2019-05-16T16:06:31.212Z,16.6
2019-05-16T16:11:38.470Z,16.5
2019-05-16T16:16:43.789Z,16.5
2019-05-16T16:21:51.174Z,16.5
2019-05-16T16:26:58.429Z,16.3
2019-05-16T16:32:03.284Z,16.3
2019-05-16T16:37:10.360Z,16.3
2019-05-16T16:42:16.460Z,16.2
2019-05-16T16:47:21.713Z,16.2
2019-05-16T16:52:29.268Z,16.1
2019-05-16T16:57:34.454Z,16
2019-05-16T17:02:57.218Z,15.9
2019-05-16T17:07:44.231Z,15.8
2019-05-16T17:12:49.050Z,15.7
2019-05-16T17:17:54.065Z,15.4
2019-05-16T17:23:01.584Z,15.2
2019-05-16T17:28:09.002Z,14.9
2019-05-16T17:33:19.258Z,14.7
2019-05-16T17:38:28.686Z,14.6
2019-05-16T17:43:33.723Z,14.6
2019-05-16T17:48:40.737Z,14.4
2019-05-16T17:53:45.719Z,14.2
2019-05-16T17:58:50.932Z,14
2019-05-16T18:03:58.354Z,13.8
2019-05-16T18:09:03.368Z,13.7
2019-05-16T18:14:13.298Z,13.5
2019-05-16T18:19:19.340Z,13.4
2019-05-16T18:24:24.372Z,13.4
2019-05-16T18:29:40.365Z,13.2
2019-05-16T18:34:37.435Z,13.2
2019-05-16T18:39:43.883Z,13.1
2019-05-16T18:44:51.587Z,13.1
2019-05-16T18:49:59.173Z,13
2019-05-16T18:55:04.427Z,13
2019-05-16T19:00:12.700Z,12.9
2019-05-16T19:05:19.012Z,12.8
2019-05-16T19:10:24.244Z,12.8
2019-05-16T19:15:31.141Z,12.8
2019-05-16T19:20:39.320Z,12.8
2019-05-16T19:25:44.297Z,12.7
2019-05-16T19:30:48.348Z,12.5
2019-05-16T19:35:53.210Z,12.5
2019-05-16T19:41:03.720Z,12.3
2019-05-16T19:46:09.282Z,12.2
2019-05-16T19:51:16.275Z,12.2
2019-05-16T19:56:21.469Z,12.1
2019-05-16T20:01:29.153Z,12
2019-05-16T20:06:34.168Z,12
2019-05-16T20:11:41.902Z,11.9
2019-05-16T20:16:49.055Z,11.7
2019-05-16T20:21:54.854Z,11.6
2019-05-16T20:27:05.124Z,11.6
2019-05-16T20:32:03.514Z,11.5
2019-05-16T20:37:10.995Z,11.4
2019-05-16T20:42:18.846Z,11.4
2019-05-16T20:47:24.098Z,11.4
2019-05-16T20:52:31.604Z,11.3
2019-05-16T20:57:39.424Z,11.2
2019-05-16T21:02:46.524Z,11.2
2019-05-16T21:07:56.890Z,11.2
2019-05-16T21:13:02.558Z,11.2
2019-05-16T21:18:08.840Z,11.3
2019-05-16T21:23:16.631Z,11.3
2019-05-16T21:28:17.065Z,11.2
2019-05-16T21:33:19.508Z,11.2
2019-05-16T21:38:26.624Z,11.2
2019-05-16T21:43:32.177Z,11.1
2019-05-16T21:48:38.910Z,10.8
2019-05-16T21:53:43.985Z,10.7
2019-05-16T21:58:50.053Z,10.5
2019-05-16T22:03:57.799Z,10.1
2019-05-16T22:09:01.808Z,10.1
2019-05-16T22:14:08.369Z,9.9
2019-05-16T22:19:12.094Z,9.9
2019-05-16T22:24:19.075Z,9.9
2019-05-16T22:29:26.303Z,9.9
2019-05-16T22:34:31.886Z,9.8
2019-05-16T22:39:38.963Z,9.6
2019-05-16T22:44:43.976Z,9.6
2019-05-16T22:49:50.898Z,9.4
2019-05-16T22:54:58.587Z,9.2
2019-05-16T23:00:03.701Z,9.1
2019-05-16T23:05:09.099Z,9.1
2019-05-16T23:10:16.479Z,9.1
2019-05-16T23:15:21.959Z,9
2019-05-16T23:20:29.524Z,8.9
2019-05-16T23:25:36.880Z,8.9
2019-05-16T23:30:37.685Z,8.7
2019-05-16T23:35:42.987Z,8.7
2019-05-16T23:40:48.723Z,8.6
2019-05-16T23:45:55.895Z,8.6
2019-05-16T23:51:01.332Z,8.7
2019-05-16T23:56:09.205Z,8.6
